createdAt,value
2023-04-18T00:02:24.779Z,98658.31
2023-04-18T00:04:55.361Z,98658.47
2023-04-18T00:07:25.986Z,98655.72
2023-04-18T00:09:56.289Z,98656.56
2023-04-18T00:12:26.847Z,98656.53
2023-04-18T00:14:58.856Z,98653.16
2023-04-18T00:17:33.017Z,98645.44
2023-04-18T00:20:07.323Z,98637.91
2023-04-18T00:22:42.616Z,98641.31
2023-04-18T00:25:13.943Z,98641.31
2023-04-18T00:27:44.917Z,98634.50
2023-04-18T00:30:16.631Z,98640.41
2023-04-18T00:32:49.710Z,98643.09
2023-04-18T00:35:22.518Z,98638.75
2023-04-18T00:37:53.076Z,98634.44
2023-04-18T00:40:23.714Z,98637.09
2023-04-18T00:42:54.201Z,98635.63
2023-04-18T00:45:24.903Z,98639.97
2023-04-18T00:47:59.133Z,98631.41
2023-04-18T00:50:30.131Z,98630.56
2023-04-18T00:53:01.502Z,98635.72
2023-04-18T00:55:33.208Z,98627.94
2023-04-18T00:58:04.569Z,98622.78
2023-04-18T01:00:35.130Z,98632.22
2023-04-18T01:03:08.693Z,98616.78
2023-04-18T01:05:39.981Z,98616.06
2023-04-18T01:08:10.996Z,98614.31
2023-04-18T01:10:41.551Z,98606.66
2023-04-18T01:13:16.804Z,98604.97
2023-04-18T01:15:49.333Z,98607.53
2023-04-18T01:18:22.692Z,98598.94
2023-04-18T01:20:57.207Z,98598.94
2023-04-18T01:23:27.621Z,98599.94
2023-04-18T01:26:01.146Z,98595.59
2023-04-18T01:28:31.561Z,98599.81
2023-04-18T01:31:01.996Z,98587.88
2023-04-18T01:33:32.638Z,98584.66
2023-04-18T01:36:03.159Z,98592.28
2023-04-18T01:38:34.775Z,98583.63
2023-04-18T01:41:07.991Z,98580.34
2023-04-18T01:43:38.460Z,98586.31
2023-04-18T01:46:09.050Z,98584.75
2023-04-18T01:48:39.782Z,98592.47
2023-04-18T01:51:10.831Z,98585.66
2023-04-18T01:53:41.935Z,98582.19
2023-04-18T01:56:15.717Z,98577.81
2023-04-18T01:58:46.133Z,98577.16
2023-04-18T02:01:17.031Z,98578.06
2023-04-18T02:03:47.822Z,98574.03
2023-04-18T02:06:18.410Z,98568.88
2023-04-18T02:08:50.533Z,98564.75
2023-04-18T02:11:23.815Z,98572.63
2023-04-18T02:13:54.289Z,98576.97
2023-04-18T02:16:25.139Z,98576.16
2023-04-18T02:18:55.684Z,98568.44
2023-04-18T02:21:26.128Z,98573.69
2023-04-18T02:23:56.893Z,98578.06
2023-04-18T02:26:30.050Z,98583.19
2023-04-18T02:29:01.575Z,98577.25
2023-04-18T02:31:33.353Z,98578.06
2023-04-18T02:34:03.956Z,98588.44
2023-04-18T02:36:34.381Z,98581.84
2023-04-18T02:39:09.352Z,98583.47
2023-04-18T02:41:42.357Z,98575.03
2023-04-18T02:44:13.362Z,98581.09
2023-04-18T02:46:43.887Z,98576.81
2023-04-18T02:49:17.097Z,98576.03
2023-04-18T02:51:48.517Z,98579.50
2023-04-18T02:54:20.304Z,98572.91
2023-04-18T02:57:08.023Z,98578.16
2023-04-18T02:59:51.124Z,98579.03
2023-04-18T03:02:44.354Z,98578.91
2023-04-18T03:05:39.945Z,98580.16
2023-04-18T03:08:11.236Z,98578.31
2023-04-18T03:10:42.315Z,98585.28
2023-04-18T03:13:15.564Z,98583.63
2023-04-18T03:15:46.911Z,98576.69
2023-04-18T03:18:17.656Z,98572.38
2023-04-18T03:20:48.214Z,98568.22
2023-04-18T03:23:20.138Z,98576.78
2023-04-18T03:25:50.610Z,98583.47
2023-04-18T03:28:23.808Z,98582.75
2023-04-18T03:30:54.268Z,98584.22
2023-04-18T03:33:25.283Z,98580.16
2023-04-18T03:36:03.493Z,98580.44
2023-04-18T03:38:34.341Z,98583.91
2023-04-18T03:41:04.767Z,98580.56
2023-04-18T03:43:40.687Z,98586.44
2023-04-18T03:46:11.175Z,98585.59
2023-04-18T03:48:42.119Z,98580.34
2023-04-18T03:51:15.076Z,98586.38
2023-04-18T03:53:45.497Z,98588.94
2023-04-18T03:56:16.156Z,98588.94
2023-04-18T03:59:00.981Z,98590.72
2023-04-18T04:01:31.586Z,98586.44
2023-04-18T04:04:03.229Z,98590.84
2023-04-18T04:06:34.532Z,98592.50
2023-04-18T04:09:05.343Z,98592.50
2023-04-18T04:11:36.626Z,98590.97
2023-04-18T04:14:10.799Z,98597.81
2023-04-18T04:16:46.483Z,98594.50
2023-04-18T04:19:19.920Z,98598.69
2023-04-18T04:22:08.361Z,98597.00
2023-04-18T04:24:40.587Z,98593.78
2023-04-18T04:27:12.685Z,98584.34
2023-04-18T04:29:46.599Z,98584.25
2023-04-18T04:32:17.532Z,98582.59
2023-04-18T04:34:48.147Z,98586.91
2023-04-18T04:37:19.029Z,98584.34
2023-04-18T04:40:10.345Z,98593.88
2023-04-18T04:42:57.067Z,98593.81
2023-04-18T04:45:39.913Z,98602.16
2023-04-18T04:48:10.636Z,98599.53
2023-04-18T04:50:43.662Z,98598.81
2023-04-18T04:53:15.489Z,98605.56
2023-04-18T04:55:46.487Z,98602.16
2023-04-18T04:58:17.683Z,98603.81
2023-04-18T05:01:12.623Z,98604.72
2023-04-18T05:03:44.402Z,98602.25
2023-04-18T05:06:20.619Z,98608.19
2023-04-18T05:08:51.187Z,98608.94
2023-04-18T05:11:21.829Z,98602.22
2023-04-18T05:13:52.274Z,98602.22
2023-04-18T05:16:25.410Z,98605.53
2023-04-18T05:18:55.830Z,98611.59
2023-04-18T05:21:27.664Z,98612.47
2023-04-18T05:23:58.729Z,98609.84
2023-04-18T05:26:29.176Z,98612.31
2023-04-18T05:28:59.561Z,98616.63
2023-04-18T05:31:32.627Z,98615.69
2023-04-18T05:34:03.098Z,98611.50
2023-04-18T05:36:33.521Z,98608.84
2023-04-18T05:39:04.366Z,98619.19
2023-04-18T05:41:34.691Z,98626.81
2023-04-18T05:44:05.925Z,98628.56
2023-04-18T05:46:39.183Z,98624.31
2023-04-18T05:49:09.754Z,98623.25
2023-04-18T05:51:40.550Z,98622.50
2023-04-18T05:54:10.955Z,98630.03
2023-04-18T05:56:43.547Z,98632.44
2023-04-18T05:59:14.176Z,98627.41
2023-04-18T06:01:47.179Z,98630.72
2023-04-18T06:04:18.091Z,98627.31
2023-04-18T06:06:48.790Z,98628.25
2023-04-18T06:09:19.288Z,98631.44
2023-04-18T06:11:49.712Z,98618.44
2023-04-18T06:14:20.083Z,98627.84
2023-04-18T06:16:53.187Z,98626.94
2023-04-18T06:19:23.499Z,98638.16
2023-04-18T06:21:55.552Z,98631.28
2023-04-18T06:24:26.032Z,98636.41
2023-04-18T06:26:57.496Z,98633.03
2023-04-18T06:29:30.561Z,98640.63
2023-04-18T06:32:03.595Z,98646.69
2023-04-18T06:34:33.993Z,98646.81
2023-04-18T06:37:05.288Z,98634.81
2023-04-18T06:39:35.647Z,98637.88
2023-04-18T06:42:06.281Z,98636.13
2023-04-18T06:44:37.042Z,98635.22
2023-04-18T06:47:10.300Z,98636.03
2023-04-18T06:49:40.676Z,98648.06
2023-04-18T06:52:11.211Z,98638.28
2023-04-18T06:54:41.788Z,98639.94
2023-04-18T06:57:12.515Z,98641.66
2023-04-18T06:59:43.564Z,98643.41
2023-04-18T07:02:16.581Z,98635.25
2023-04-18T07:04:47.522Z,98642.31
2023-04-18T07:07:17.895Z,98644.50
2023-04-18T07:09:48.320Z,98639.19
2023-04-18T07:12:18.973Z,98641.75
2023-04-18T07:14:49.848Z,98642.53
2023-04-18T07:17:22.921Z,98646.75
2023-04-18T07:19:53.431Z,98641.41
2023-04-18T07:22:23.970Z,98648.38
2023-04-18T07:24:54.472Z,98644.66
2023-04-18T07:27:24.821Z,98646.13
2023-04-18T07:29:55.220Z,98647.75
2023-04-18T07:32:28.390Z,98641.69
2023-04-18T07:34:59.530Z,98649.97
2023-04-18T07:37:29.972Z,98642.94
2023-04-18T07:40:00.614Z,98652.44
2023-04-18T07:42:31.313Z,98657.56
2023-04-18T07:45:01.873Z,98648.81
2023-04-18T07:47:35.071Z,98660.75
2023-04-18T07:50:06.103Z,98657.66
2023-04-18T07:52:38.179Z,98654.81
2023-04-18T07:55:11.488Z,98650.38
2023-04-18T07:57:41.892Z,98651.94
2023-04-18T08:00:15.235Z,98648.44
2023-04-18T08:02:48.383Z,98655.28
2023-04-18T08:05:19.192Z,98651.72
2023-04-18T08:07:49.698Z,98655.50
2023-04-18T08:10:23.191Z,98648.31
2023-04-18T08:12:54.092Z,98655.88
2023-04-18T08:15:24.701Z,98666.69
2023-04-18T08:17:57.760Z,98660.22
2023-04-18T08:20:28.472Z,98654.69
2023-04-18T08:23:07.459Z,98647.75
2023-04-18T08:25:39.450Z,98661.44
2023-04-18T08:28:10.073Z,98666.84
2023-04-18T08:30:40.812Z,98666.72
2023-04-18T08:33:13.910Z,98664.66
2023-04-18T08:35:44.542Z,98670.72
2023-04-18T08:38:14.927Z,98665.38
2023-04-18T08:40:46.699Z,98662.69
2023-04-18T08:43:18.151Z,98664.34
2023-04-18T08:45:48.812Z,98667.84
2023-04-18T08:48:23.367Z,98665.06
2023-04-18T08:50:59.900Z,98663.41
2023-04-18T08:53:32.875Z,98662.34
2023-04-18T08:56:03.439Z,98669.78
2023-04-18T08:58:34.455Z,98674.28
2023-04-18T09:01:04.978Z,98678.47
2023-04-18T09:03:45.535Z,98678.47
2023-04-18T09:06:20.454Z,98681.81
2023-04-18T09:09:00.404Z,98679.22
2023-04-18T09:11:34.548Z,98670.97
2023-04-18T09:14:05.069Z,98682.84
2023-04-18T09:16:50.734Z,98678.59
2023-04-18T09:19:23.948Z,98687.94
2023-04-18T09:22:02.084Z,98681.88
2023-04-18T09:24:34.607Z,98679.56
2023-04-18T09:27:05.138Z,98685.28
2023-04-18T09:29:50.094Z,98688.78
2023-04-18T09:32:27.365Z,98682.00
2023-04-18T09:35:04.880Z,98681.94
2023-04-18T09:37:35.700Z,98691.78
2023-04-18T09:40:20.859Z,98685.03
2023-04-18T09:42:51.772Z,98687.41
2023-04-18T09:45:22.341Z,98688.41
2023-04-18T09:47:53.653Z,98684.06
2023-04-18T09:50:26.734Z,98680.44
2023-04-18T09:52:58.543Z,98688.81
2023-04-18T09:55:29.576Z,98675.81
2023-04-18T09:58:02.629Z,98676.78
2023-04-18T10:00:35.190Z,98677.34
2023-04-18T10:03:11.006Z,98686.22
2023-04-18T10:05:45.975Z,98675.81
2023-04-18T10:08:17.092Z,98673.81
2023-04-18T10:10:47.665Z,98667.22
2023-04-18T10:13:18.406Z,98670.28
2023-04-18T10:15:52.124Z,98673.94
2023-04-18T10:18:27.088Z,98672.97
2023-04-18T10:21:08.342Z,98666.09
2023-04-18T10:23:41.497Z,98669.44
2023-04-18T10:26:12.556Z,98665.22
2023-04-18T10:28:59.607Z,98666.19
2023-04-18T10:31:31.913Z,98663.25
2023-04-18T10:34:05.924Z,98661.31
2023-04-18T10:36:39.551Z,98660.84
2023-04-18T10:39:26.350Z,98661.31
2023-04-18T10:41:56.783Z,98660.09
2023-04-18T10:44:27.742Z,98658.81
2023-04-18T10:47:34.157Z,98655.16
2023-04-18T10:50:07.055Z,98649.53
2023-04-18T10:52:40.436Z,98653.78
2023-04-18T10:55:20.585Z,98650.22
2023-04-18T10:57:56.162Z,98647.47
2023-04-18T11:00:27.023Z,98648.09
2023-04-18T11:03:00.484Z,98642.91
2023-04-18T11:05:32.080Z,98639.41
2023-04-18T11:08:05.078Z,98644.56
2023-04-18T11:10:35.517Z,98637.59
2023-04-18T11:13:09.000Z,98634.09
2023-04-18T11:15:40.227Z,98630.63
2023-04-18T11:18:12.790Z,98630.38
2023-04-18T11:20:50.209Z,98621.19
2023-04-18T11:23:25.657Z,98625.97
2023-04-18T11:25:58.752Z,98622.13
2023-04-18T11:28:29.884Z,98624.16
2023-04-18T11:31:03.006Z,98629.94
2023-04-18T11:33:33.593Z,98624.19
2023-04-18T11:36:04.260Z,98629.94
2023-04-18T11:38:37.290Z,98628.66
2023-04-18T11:41:07.954Z,98617.00
2023-04-18T11:43:38.389Z,98621.88
2023-04-18T11:46:09.021Z,98625.38
2023-04-18T11:48:39.743Z,98624.91
2023-04-18T11:51:31.408Z,98623.25
2023-04-18T11:54:04.529Z,98633.94
2023-04-18T11:56:36.663Z,98632.25
2023-04-18T11:59:12.500Z,98631.44
2023-04-18T12:01:43.377Z,98633.31
2023-04-18T12:04:14.528Z,98623.78
2023-04-18T12:06:52.537Z,98627.03
2023-04-18T12:09:27.367Z,98625.00
2023-04-18T12:12:02.969Z,98623.53
2023-04-18T12:14:33.883Z,98625.03
2023-04-18T12:17:07.013Z,98628.88
2023-04-18T12:19:37.450Z,98625.06
2023-04-18T12:22:09.594Z,98621.53
2023-04-18T12:24:43.502Z,98621.38
2023-04-18T12:27:14.222Z,98621.53
2023-04-18T12:29:44.736Z,98612.28
2023-04-18T12:32:15.248Z,98607.84
2023-04-18T12:34:45.656Z,98608.25
2023-04-18T12:37:16.100Z,98613.34
2023-04-18T12:39:49.077Z,98607.66
2023-04-18T12:42:19.592Z,98612.66
2023-04-18T12:44:50.048Z,98611.06
2023-04-18T12:47:20.466Z,98606.72
2023-04-18T12:49:50.937Z,98613.66
2023-04-18T12:52:21.484Z,98610.03
2023-04-18T12:54:56.480Z,98606.63
2023-04-18T12:57:28.036Z,98604.53
2023-04-18T12:59:59.431Z,98606.44
2023-04-18T13:02:30.596Z,98612.72
2023-04-18T13:05:01.274Z,98602.59
2023-04-18T13:07:31.958Z,98605.41
2023-04-18T13:10:04.984Z,98601.59
2023-04-18T13:12:35.649Z,98605.63
2023-04-18T13:15:06.999Z,98599.28
2023-04-18T13:17:39.077Z,98600.16
2023-04-18T13:20:13.188Z,98590.50
2023-04-18T13:22:45.112Z,98608.03
2023-04-18T13:25:18.350Z,98600.41
2023-04-18T13:27:50.413Z,98606.06
2023-04-18T13:30:21.322Z,98603.00
2023-04-18T13:32:51.978Z,98604.75
2023-04-18T13:35:22.767Z,98605.53
2023-04-18T13:37:53.496Z,98600.59
2023-04-18T13:40:26.658Z,98603.66
2023-04-18T13:42:57.380Z,98607.63
2023-04-18T13:45:27.835Z,98604.94
2023-04-18T13:47:58.367Z,98604.94
2023-04-18T13:50:28.895Z,98603.38
2023-04-18T13:52:59.485Z,98602.91
2023-04-18T13:55:32.733Z,98606.81
2023-04-18T13:58:03.337Z,98604.94
2023-04-18T14:00:34.025Z,98600.47
2023-04-18T14:03:05.145Z,98609.34
2023-04-18T14:05:36.166Z,98610.94
2023-04-18T14:08:06.818Z,98605.50
2023-04-18T14:10:40.076Z,98608.19
2023-04-18T14:13:10.501Z,98612.13
2023-04-18T14:15:40.897Z,98611.94
2023-04-18T14:18:11.599Z,98611.94
2023-04-18T14:20:42.041Z,98614.47
2023-04-18T14:23:12.539Z,98610.78
2023-04-18T14:25:46.136Z,98609.41
2023-04-18T14:28:17.584Z,98612.72
2023-04-18T14:30:48.073Z,98611.44
2023-04-18T14:33:18.589Z,98611.81
2023-04-18T14:35:48.986Z,98611.25
2023-04-18T14:38:19.417Z,98614.84
2023-04-18T14:40:52.468Z,98618.66
2023-04-18T14:43:22.904Z,98612.72
2023-04-18T14:45:53.550Z,98607.94
2023-04-18T14:48:24.062Z,98610.78
2023-04-18T14:50:59.771Z,98610.13
2023-04-18T14:53:30.199Z,98614.13
2023-04-18T14:56:03.280Z,98613.69
2023-04-18T14:58:33.725Z,98619.97
2023-04-18T15:01:04.252Z,98608.22
2023-04-18T15:03:35.456Z,98610.44
2023-04-18T15:06:06.076Z,98609.03
2023-04-18T15:08:36.922Z,98616.28
2023-04-18T15:11:11.862Z,98605.53
2023-04-18T15:13:42.843Z,98615.53
2023-04-18T15:16:13.373Z,98611.00
2023-04-18T15:18:45.233Z,98611.09
2023-04-18T15:21:15.695Z,98613.47
2023-04-18T15:23:46.220Z,98616.47
2023-04-18T15:26:19.186Z,98609.97
2023-04-18T15:28:49.807Z,98605.91
2023-04-18T15:31:20.262Z,98610.91
2023-04-18T15:33:50.663Z,98603.41
2023-04-18T15:36:21.049Z,98610.53
2023-04-18T15:38:51.683Z,98610.78
2023-04-18T15:41:24.746Z,98611.34
2023-04-18T15:43:56.197Z,98609.00
2023-04-18T15:46:26.571Z,98620.66
2023-04-18T15:48:57.115Z,98604.59
2023-04-18T15:51:30.520Z,98620.25
2023-04-18T15:54:01.074Z,98616.78
2023-04-18T15:56:36.773Z,98618.09
2023-04-18T15:59:11.188Z,98617.25
2023-04-18T16:01:43.249Z,98622.44
2023-04-18T16:04:15.460Z,98619.25
2023-04-18T16:06:46.107Z,98617.25
2023-04-18T16:09:16.507Z,98624.13
2023-04-18T16:11:49.494Z,98622.44
2023-04-18T16:14:19.953Z,98627.81
2023-04-18T16:16:50.416Z,98626.16
2023-04-18T16:19:21.113Z,98622.63
2023-04-18T16:21:51.788Z,98635.03
2023-04-18T16:24:22.227Z,98632.50
2023-04-18T16:26:55.772Z,98637.78
2023-04-18T16:29:26.286Z,98643.03
2023-04-18T16:31:56.679Z,98635.75
2023-04-18T16:34:27.134Z,98642.41
2023-04-18T16:36:57.876Z,98635.53
2023-04-18T16:39:28.339Z,98637.53
2023-04-18T16:42:01.612Z,98642.91
2023-04-18T16:44:33.354Z,98647.75
2023-04-18T16:47:05.192Z,98638.75
2023-04-18T16:49:35.941Z,98645.22
2023-04-18T16:52:06.611Z,98648.84
2023-04-18T16:54:37.091Z,98650.50
2023-04-18T16:57:10.127Z,98656.94
2023-04-18T16:59:41.931Z,98645.84
2023-04-18T17:02:12.827Z,98650.44
2023-04-18T17:04:43.451Z,98653.44
2023-04-18T17:07:13.917Z,98659.47
2023-04-18T17:09:44.388Z,98655.31
2023-04-18T17:12:17.407Z,98657.78
2023-04-18T17:14:47.801Z,98662.97
2023-04-18T17:17:18.553Z,98654.22
2023-04-18T17:19:49.259Z,98655.97
2023-04-18T17:22:19.670Z,98657.53
2023-04-18T17:24:50.123Z,98659.03
2023-04-18T17:27:23.154Z,98660.88
2023-04-18T17:29:53.614Z,98660.22
2023-04-18T17:32:24.338Z,98660.38
2023-04-18T17:34:56.396Z,98661.16
2023-04-18T17:37:27.467Z,98664.84
2023-04-18T17:39:58.543Z,98665.72
2023-04-18T17:42:31.606Z,98673.69
2023-04-18T17:45:04.386Z,98670.66
2023-04-18T17:47:34.838Z,98672.34
2023-04-18T17:50:05.816Z,98674.16
2023-04-18T17:52:36.455Z,98671.16
2023-04-18T17:55:07.881Z,98675.09
2023-04-18T17:57:41.064Z,98676.03
2023-04-18T18:00:14.652Z,98685.47
2023-04-18T18:02:45.379Z,98688.22
2023-04-18T18:05:16.817Z,98676.09
2023-04-18T18:07:50.143Z,98691.97
2023-04-18T18:10:23.413Z,98688.63
2023-04-18T18:12:56.860Z,98692.03
2023-04-18T18:15:28.570Z,98687.22
2023-04-18T18:17:59.308Z,98692.53
2023-04-18T18:20:30.947Z,98697.72
2023-04-18T18:23:02.959Z,98696.31
2023-04-18T18:25:36.575Z,98702.63
2023-04-18T18:28:10.013Z,98698.53
2023-04-18T18:30:40.591Z,98704.69
2023-04-18T18:33:11.063Z,98705.84
2023-04-18T18:35:41.716Z,98712.84
2023-04-18T18:38:12.196Z,98715.44
2023-04-18T18:40:42.737Z,98716.50
2023-04-18T18:43:15.846Z,98718.50
2023-04-18T18:45:46.236Z,98722.91
2023-04-18T18:48:16.699Z,98723.59
2023-04-18T18:50:48.297Z,98730.03
2023-04-18T18:53:19.476Z,98727.44
2023-04-18T18:55:49.820Z,98736.19
2023-04-18T18:58:22.880Z,98740.44
2023-04-18T19:00:54.796Z,98740.59
2023-04-18T19:03:26.162Z,98753.81
2023-04-18T19:05:56.863Z,98740.09
2023-04-18T19:08:27.258Z,98750.59
2023-04-18T19:10:57.666Z,98750.09
2023-04-18T19:13:30.702Z,98756.78
2023-04-18T19:16:01.571Z,98755.78
2023-04-18T19:18:32.002Z,98755.25
2023-04-18T19:21:02.397Z,98752.72
2023-04-18T19:23:32.940Z,98752.13
2023-04-18T19:26:03.478Z,98754.94
2023-04-18T19:28:36.508Z,98760.34
2023-04-18T19:31:07.062Z,98766.34
2023-04-18T19:33:37.836Z,98759.28
2023-04-18T19:36:08.852Z,98763.53
2023-04-18T19:38:39.263Z,98769.00
2023-04-18T19:41:09.642Z,98762.00
2023-04-18T19:43:42.881Z,98771.59
2023-04-18T19:46:13.383Z,98774.34
2023-04-18T19:48:43.937Z,98760.88
2023-04-18T19:51:14.356Z,98766.97
2023-04-18T19:53:44.910Z,98769.44
2023-04-18T19:56:15.440Z,98768.75
2023-04-18T19:58:49.251Z,98765.44
2023-04-18T20:01:22.577Z,98765.63
2023-04-18T20:03:54.222Z,98771.84
2023-04-18T20:06:25.304Z,98771.94
2023-04-18T20:08:56.304Z,98767.69
2023-04-18T20:11:28.222Z,98770.03
2023-04-18T20:14:01.354Z,98775.34
2023-04-18T20:16:32.934Z,98772.78
2023-04-18T20:19:04.204Z,98775.50
2023-04-18T20:21:35.034Z,98774.75
2023-04-18T20:24:05.772Z,98772.03
2023-04-18T20:26:36.352Z,98775.72
2023-04-18T20:29:09.403Z,98781.84
2023-04-18T20:31:42.465Z,98778.66
2023-04-18T20:34:12.979Z,98775.53
2023-04-18T20:36:44.011Z,98784.13
2023-04-18T20:39:15.742Z,98776.38
2023-04-18T20:41:47.311Z,98778.28
2023-04-18T20:44:22.330Z,98782.53
2023-04-18T20:46:53.608Z,98781.81
2023-04-18T20:49:23.988Z,98785.16
2023-04-18T20:51:54.504Z,98792.03
2023-04-18T20:54:25.169Z,98796.41
2023-04-18T20:56:55.566Z,98794.13
2023-04-18T20:59:28.589Z,98792.44
2023-04-18T21:01:59.052Z,98787.44
2023-04-18T21:04:30.435Z,98790.91
2023-04-18T21:07:00.852Z,98796.06
2023-04-18T21:09:36.458Z,98786.66
2023-04-18T21:12:07.754Z,98786.56
2023-04-18T21:14:40.685Z,98792.72
2023-04-18T21:17:17.206Z,98789.34
2023-04-18T21:19:48.488Z,98789.34
2023-04-18T21:22:20.050Z,98794.66
2023-04-18T21:24:50.995Z,98795.66
2023-04-18T21:27:21.486Z,98791.47
2023-04-18T21:29:54.755Z,98790.72
2023-04-18T21:32:25.329Z,98796.56
2023-04-18T21:34:56.659Z,98792.16
2023-04-18T21:37:27.847Z,98794.81
2023-04-18T21:39:58.435Z,98795.78
2023-04-18T21:42:28.837Z,98795.72
2023-04-18T21:45:01.845Z,98797.75
2023-04-18T21:47:32.458Z,98793.41
2023-04-18T21:50:03.146Z,98798.59
2023-04-18T21:52:33.646Z,98792.97
2023-04-18T21:55:05.135Z,98793.13
2023-04-18T21:57:35.604Z,98793.31
2023-04-18T22:00:13.095Z,98800.03
2023-04-18T22:02:43.977Z,98793.28
2023-04-18T22:05:14.589Z,98792.47
2023-04-18T22:07:56.939Z,98795.16
2023-04-18T22:10:28.920Z,98790.59
2023-04-18T22:13:00.349Z,98795.16
2023-04-18T22:15:33.638Z,98792.78
2023-04-18T22:18:05.441Z,98785.19
2023-04-18T22:20:36.379Z,98785.06
2023-04-18T22:23:07.387Z,98780.19
2023-04-18T22:25:38.200Z,98786.91
2023-04-18T22:28:08.751Z,98779.16
2023-04-18T22:30:41.959Z,98786.94
2023-04-18T22:33:12.449Z,98788.69
2023-04-18T22:35:42.948Z,98792.13
2023-04-18T22:38:13.303Z,98794.78
2023-04-18T22:40:43.956Z,98791.50
2023-04-18T22:43:14.482Z,98792.59
2023-04-18T22:45:48.835Z,98791.81
2023-04-18T22:48:19.359Z,98796.97
2023-04-18T22:50:50.123Z,98797.78
2023-04-18T22:53:20.580Z,98785.69
2023-04-18T22:55:51.131Z,98790.78
2023-04-18T22:58:21.749Z,98788.31
2023-04-18T23:00:54.821Z,98786.84
2023-04-18T23:03:25.269Z,98786.84
2023-04-18T23:05:56.120Z,98782.72
2023-04-18T23:08:26.526Z,98788.81
2023-04-18T23:10:57.101Z,98777.09
2023-04-18T23:13:27.760Z,98781.75
2023-04-18T23:16:00.797Z,98787.69
2023-04-18T23:18:32.732Z,98786.78
2023-04-18T23:21:03.673Z,98794.44
2023-04-18T23:23:34.216Z,98793.72
2023-04-18T23:26:04.666Z,98791.34
2023-04-18T23:28:35.940Z,98794.00
2023-04-18T23:31:09.883Z,98794.91
2023-04-18T23:33:40.409Z,98794.91
2023-04-18T23:36:11.906Z,98788.88
2023-04-18T23:38:43.620Z,98788.66
2023-04-18T23:41:14.034Z,98792.91
2023-04-18T23:43:44.697Z,98783.38
2023-04-18T23:46:18.197Z,98786.25
2023-04-18T23:48:48.858Z,98787.94
2023-04-18T23:51:19.467Z,98784.84
2023-04-18T23:53:50.129Z,98784.72
2023-04-18T23:56:20.625Z,98783.94
2023-04-18T23:58:51.019Z,98783.41
